sensor_id;sensor_type;location;lat;lon;timestamp;pressure;altitude;pressure_sealevel;temperature;humidity
63447;BME280;49577;49.872;6.190;2023-03-04T00:00:41;100358.37;;;-2.90;72.54
63447;BME280;49577;49.872;6.190;2023-03-04T00:03:10;100356.80;;;-2.97;72.59
63447;BME280;49577;49.872;6.190;2023-03-04T00:05:36;100360.04;;;-3.00;73.23
63447;BME280;49577;49.872;6.190;2023-03-04T00:08:02;100359.19;;;-2.97;73.35
63447;BME280;49577;49.872;6.190;2023-03-04T00:10:28;100357.48;;;-2.97;72.96
63447;BME280;49577;49.872;6.190;2023-03-04T00:12:53;100355.07;;;-3.01;72.64
63447;BME280;49577;49.872;6.190;2023-03-04T00:15:18;100356.40;;;-3.07;72.77
63447;BME280;49577;49.872;6.190;2023-03-04T00:17:44;100353.13;;;-3.13;73.15
63447;BME280;49577;49.872;6.190;2023-03-04T00:20:11;100355.84;;;-3.19;73.11
63447;BME280;49577;49.872;6.190;2023-03-04T00:22:36;100353.08;;;-3.23;73.37
63447;BME280;49577;49.872;6.190;2023-03-04T00:25:02;100351.71;;;-3.24;73.61
63447;BME280;49577;49.872;6.190;2023-03-04T00:27:28;100352.22;;;-3.25;73.63
63447;BME280;49577;49.872;6.190;2023-03-04T00:29:54;100351.69;;;-3.28;73.54
63447;BME280;49577;49.872;6.190;2023-03-04T00:32:19;100354.73;;;-3.34;73.53
63447;BME280;49577;49.872;6.190;2023-03-04T00:34:45;100352.83;;;-3.39;73.58
63447;BME280;49577;49.872;6.190;2023-03-04T00:37:10;100351.09;;;-3.44;73.51
63447;BME280;49577;49.872;6.190;2023-03-04T00:39:35;100351.42;;;-3.46;73.82
63447;BME280;49577;49.872;6.190;2023-03-04T00:42:00;100353.98;;;-3.45;74.01
63447;BME280;49577;49.872;6.190;2023-03-04T00:44:26;100352.27;;;-3.45;74.15
63447;BME280;49577;49.872;6.190;2023-03-04T00:46:51;100353.81;;;-3.43;74.31
63447;BME280;49577;49.872;6.190;2023-03-04T00:49:16;100353.81;;;-3.44;73.93
63447;BME280;49577;49.872;6.190;2023-03-04T00:51:42;100353.45;;;-3.48;74.10
63447;BME280;49577;49.872;6.190;2023-03-04T00:54:07;100349.16;;;-3.51;73.97
63447;BME280;49577;49.872;6.190;2023-03-04T00:56:32;100350.34;;;-3.53;74.08
63447;BME280;49577;49.872;6.190;2023-03-04T00:58:58;100344.02;;;-3.54;74.08
63447;BME280;49577;49.872;6.190;2023-03-04T01:01:23;100339.58;;;-3.55;73.96
63447;BME280;49577;49.872;6.190;2023-03-04T01:03:48;100343.67;;;-3.57;73.94
63447;BME280;49577;49.872;6.190;2023-03-04T01:06:14;100344.51;;;-3.59;74.04
63447;BME280;49577;49.872;6.190;2023-03-04T01:08:39;100346.04;;;-3.60;74.22
63447;BME280;49577;49.872;6.190;2023-03-04T01:11:05;100346.23;;;-3.57;74.42
63447;BME280;49577;49.872;6.190;2023-03-04T01:13:31;100348.29;;;-3.55;74.29
63447;BME280;49577;49.872;6.190;2023-03-04T01:15:56;100351.70;;;-3.58;73.95
63447;BME280;49577;49.872;6.190;2023-03-04T01:18:22;100352.52;;;-3.61;73.96
63447;BME280;49577;49.872;6.190;2023-03-04T01:20:47;100348.23;;;-3.64;74.15
63447;BME280;49577;49.872;6.190;2023-03-04T01:23:13;100345.85;;;-3.61;74.35
63447;BME280;49577;49.872;6.190;2023-03-04T01:25:38;100339.75;;;-3.56;74.55
63447;BME280;49577;49.872;6.190;2023-03-04T01:28:03;100340.77;;;-3.55;74.23
63447;BME280;49577;49.872;6.190;2023-03-04T01:30:29;100339.20;;;-3.60;73.67
63447;BME280;49577;49.872;6.190;2023-03-04T01:32:54;100337.45;;;-3.68;73.64
63447;BME280;49577;49.872;6.190;2023-03-04T01:35:19;100334.86;;;-3.73;74.06
63447;BME280;49577;49.872;6.190;2023-03-04T01:37:45;100331.41;;;-3.76;74.23
63447;BME280;49577;49.872;6.190;2023-03-04T01:40:12;100326.79;;;-3.79;74.11
63447;BME280;49577;49.872;6.190;2023-03-04T01:42:37;100326.75;;;-3.84;74.29
63447;BME280;49577;49.872;6.190;2023-03-04T01:45:04;100322.80;;;-3.85;74.54
63447;BME280;49577;49.872;6.190;2023-03-04T01:47:32;100317.88;;;-3.84;74.74
63447;BME280;49577;49.872;6.190;2023-03-04T01:50:01;100317.90;;;-3.79;74.79
63447;BME280;49577;49.872;6.190;2023-03-04T01:52:27;100314.68;;;-3.78;74.66
63447;BME280;49577;49.872;6.190;2023-03-04T01:54:53;100315.88;;;-3.79;74.72
63447;BME280;49577;49.872;6.190;2023-03-04T01:57:21;100311.93;;;-3.79;74.72
63447;BME280;49577;49.872;6.190;2023-03-04T02:00:10;100312.91;;;-3.85;74.43
63447;BME280;49577;49.872;6.190;2023-03-04T02:02:39;100312.39;;;-3.88;74.85
63447;BME280;49577;49.872;6.190;2023-03-04T02:05:04;100311.52;;;-3.90;74.99
63447;BME280;49577;49.872;6.190;2023-03-04T02:07:30;100307.75;;;-3.91;75.01
63447;BME280;49577;49.872;6.190;2023-03-04T02:09:55;100306.19;;;-3.95;74.66
63447;BME280;49577;49.872;6.190;2023-03-04T02:12:20;100299.84;;;-3.98;74.76
63447;BME280;49577;49.872;6.190;2023-03-04T02:14:46;100300.02;;;-3.97;75.18
63447;BME280;49577;49.872;6.190;2023-03-04T02:17:11;100296.48;;;-3.93;75.26
63447;BME280;49577;49.872;6.190;2023-03-04T02:19:41;100292.73;;;-3.92;75.06
63447;BME280;49577;49.872;6.190;2023-03-04T02:22:10;100294.27;;;-3.93;74.90
63447;BME280;49577;49.872;6.190;2023-03-04T02:24:43;100292.36;;;-3.96;74.68
63447;BME280;49577;49.872;6.190;2023-03-04T02:27:10;100295.95;;;-3.96;74.85
63447;BME280;49577;49.872;6.190;2023-03-04T02:29:35;100292.19;;;-3.97;74.81
63447;BME280;49577;49.872;6.190;2023-03-04T02:32:01;100290.45;;;-4.01;74.67
63447;BME280;49577;49.872;6.190;2023-03-04T02:34:30;100290.42;;;-4.03;74.76
63447;BME280;49577;49.872;6.190;2023-03-04T02:36:57;100286.37;;;-3.99;75.28
63447;BME280;49577;49.872;6.190;2023-03-04T02:39:33;100289.49;;;-3.90;75.31
63447;BME280;49577;49.872;6.190;2023-03-04T02:42:00;100288.88;;;-3.81;75.11
63447;BME280;49577;49.872;6.190;2023-03-04T02:44:28;100285.33;;;-3.75;74.91
63447;BME280;49577;49.872;6.190;2023-03-04T02:46:54;100283.13;;;-3.72;74.94
63447;BME280;49577;49.872;6.190;2023-03-04T02:49:22;100284.51;;;-3.69;75.04
63447;BME280;49577;49.872;6.190;2023-03-04T02:52:19;100284.35;;;-3.65;75.23
63447;BME280;49577;49.872;6.190;2023-03-04T02:54:44;100287.48;;;-3.57;75.52
63447;BME280;49577;49.872;6.190;2023-03-04T02:57:12;100285.63;;;-3.51;75.37
63447;BME280;49577;49.872;6.190;2023-03-04T02:59:38;100282.95;;;-3.41;75.58
63447;BME280;49577;49.872;6.190;2023-03-04T03:02:05;100281.63;;;-3.30;75.45
63447;BME280;49577;49.872;6.190;2023-03-04T03:04:31;100283.54;;;-3.23;75.26
63447;BME280;49577;49.872;6.190;2023-03-04T03:06:56;100278.42;;;-3.19;75.30
63447;BME280;49577;49.872;6.190;2023-03-04T03:09:22;100274.52;;;-3.12;75.36
63447;BME280;49577;49.872;6.190;2023-03-04T03:11:47;100279.15;;;-3.04;75.34
63447;BME280;49577;49.872;6.190;2023-03-04T03:14:13;100274.05;;;-2.99;75.16
63447;BME280;49577;49.872;6.190;2023-03-04T03:16:38;100276.63;;;-2.94;75.13
63447;BME280;49577;49.872;6.190;2023-03-04T03:19:04;100268.08;;;-2.91;75.14
63447;BME280;49577;49.872;6.190;2023-03-04T03:21:29;100268.96;;;-2.85;75.19
63447;BME280;49577;49.872;6.190;2023-03-04T03:23:54;100265.73;;;-2.81;75.03
63447;BME280;49577;49.872;6.190;2023-03-04T03:26:20;100269.16;;;-2.75;74.94
63447;BME280;49577;49.872;6.190;2023-03-04T03:28:46;100268.65;;;-2.67;75.03
63447;BME280;49577;49.872;6.190;2023-03-04T03:31:11;100266.43;;;-2.61;74.89
63447;BME280;49577;49.872;6.190;2023-03-04T03:33:37;100264.73;;;-2.58;74.84
63447;BME280;49577;49.872;6.190;2023-03-04T03:36:02;100268.33;;;-2.57;74.83
63447;BME280;49577;49.872;6.190;2023-03-04T03:38:28;100265.23;;;-2.56;74.75
63447;BME280;49577;49.872;6.190;2023-03-04T03:40:53;100264.03;;;-2.55;74.83
63447;BME280;49577;49.872;6.190;2023-03-04T03:43:18;100264.72;;;-2.56;74.93
63447;BME280;49577;49.872;6.190;2023-03-04T03:45:44;100262.86;;;-2.54;75.01
63447;BME280;49577;49.872;6.190;2023-03-04T03:48:09;100265.25;;;-2.51;75.08
63447;BME280;49577;49.872;6.190;2023-03-04T03:50:34;100266.96;;;-2.44;75.13
63447;BME280;49577;49.872;6.190;2023-03-04T03:53:00;100261.84;;;-2.37;74.86
63447;BME280;49577;49.872;6.190;2023-03-04T03:55:25;100265.60;;;-2.33;74.75
63447;BME280;49577;49.872;6.190;2023-03-04T03:57:51;100265.26;;;-2.30;74.70
63447;BME280;49577;49.872;6.190;2023-03-04T04:00:16;100260.98;;;-2.25;74.66
63447;BME280;49577;49.872;6.190;2023-03-04T04:02:42;100262.17;;;-2.21;74.64
63447;BME280;49577;49.872;6.190;2023-03-04T04:05:07;100259.77;;;-2.14;74.54
63447;BME280;49577;49.872;6.190;2023-03-04T04:07:33;100256.17;;;-2.09;74.36
63447;BME280;49577;49.872;6.190;2023-03-04T04:09:58;100257.55;;;-2.05;74.27
63447;BME280;49577;49.872;6.190;2023-03-04T04:12:24;100256.17;;;-2.04;74.21
63447;BME280;49577;49.872;6.190;2023-03-04T04:14:49;100253.95;;;-2.03;74.32
63447;BME280;49577;49.872;6.190;2023-03-04T04:17:14;100256.00;;;-2.03;74.41
63447;BME280;49577;49.872;6.190;2023-03-04T04:19:40;100252.39;;;-2.01;74.46
63447;BME280;49577;49.872;6.190;2023-03-04T04:22:07;100252.40;;;-2.00;74.56
63447;BME280;49577;49.872;6.190;2023-03-04T04:24:33;100247.95;;;-1.99;74.39
63447;BME280;49577;49.872;6.190;2023-03-04T04:26:59;100252.56;;;-2.00;74.46
63447;BME280;49577;49.872;6.190;2023-03-04T04:29:24;100250.52;;;-2.04;74.39
63447;BME280;49577;49.872;6.190;2023-03-04T04:31:49;100248.30;;;-2.08;74.38
63447;BME280;49577;49.872;6.190;2023-03-04T04:34:15;100247.79;;;-2.05;74.56
63447;BME280;49577;49.872;6.190;2023-03-04T04:36:40;100246.58;;;-2.04;74.48
63447;BME280;49577;49.872;6.190;2023-03-04T04:39:06;100245.89;;;-2.00;74.78
63447;BME280;49577;49.872;6.190;2023-03-04T04:41:36;100246.91;;;-1.94;74.74
63447;BME280;49577;49.872;6.190;2023-03-04T04:44:02;100248.61;;;-1.91;74.63
63447;BME280;49577;49.872;6.190;2023-03-04T04:46:27;100247.40;;;-1.86;74.79
63447;BME280;49577;49.872;6.190;2023-03-04T04:48:54;100250.83;;;-1.80;74.64
63447;BME280;49577;49.872;6.190;2023-03-04T04:51:19;100256.64;;;-1.77;74.62
63447;BME280;49577;49.872;6.190;2023-03-04T04:53:44;100255.77;;;-1.75;74.60
63447;BME280;49577;49.872;6.190;2023-03-04T04:56:15;100254.74;;;-1.71;74.71
63447;BME280;49577;49.872;6.190;2023-03-04T04:58:42;100254.39;;;-1.67;74.46
63447;BME280;49577;49.872;6.190;2023-03-04T05:01:08;100255.77;;;-1.67;74.37
63447;BME280;49577;49.872;6.190;2023-03-04T05:03:35;100254.71;;;-1.66;74.59
63447;BME280;49577;49.872;6.190;2023-03-04T05:06:01;100260.55;;;-1.63;74.48
63447;BME280;49577;49.872;6.190;2023-03-04T05:08:26;100262.77;;;-1.59;74.45
63447;BME280;49577;49.872;6.190;2023-03-04T05:10:52;100259.86;;;-1.60;74.33
63447;BME280;49577;49.872;6.190;2023-03-04T05:13:18;100257.27;;;-1.60;74.49
63447;BME280;49577;49.872;6.190;2023-03-04T05:15:44;100257.61;;;-1.57;74.46
63447;BME280;49577;49.872;6.190;2023-03-04T05:18:10;100260.67;;;-1.53;74.28
63447;BME280;49577;49.872;6.190;2023-03-04T05:20:35;100261.55;;;-1.55;74.18
63447;BME280;49577;49.872;6.190;2023-03-04T05:23:00;100260.87;;;-1.55;74.37
63447;BME280;49577;49.872;6.190;2023-03-04T05:25:26;100258.46;;;-1.55;74.23
63447;BME280;49577;49.872;6.190;2023-03-04T05:27:51;100255.39;;;-1.56;74.30
63447;BME280;49577;49.872;6.190;2023-03-04T05:30:17;100257.80;;;-1.56;74.32
63447;BME280;49577;49.872;6.190;2023-03-04T05:32:42;100259.85;;;-1.56;74.38
63447;BME280;49577;49.872;6.190;2023-03-04T05:35:08;100258.29;;;-1.54;74.50
63447;BME280;49577;49.872;6.190;2023-03-04T05:37:33;100259.30;;;-1.51;74.47
63447;BME280;49577;49.872;6.190;2023-03-04T05:39:59;100256.05;;;-1.50;74.52
63447;BME280;49577;49.872;6.190;2023-03-04T05:42:24;100260.49;;;-1.49;74.47
63447;BME280;49577;49.872;6.190;2023-03-04T05:44:49;100261.52;;;-1.46;74.75
63447;BME280;49577;49.872;6.190;2023-03-04T05:47:15;100265.29;;;-1.45;74.62
63447;BME280;49577;49.872;6.190;2023-03-04T05:49:40;100264.09;;;-1.44;74.77
63447;BME280;49577;49.872;6.190;2023-03-04T05:52:06;100267.52;;;-1.42;74.73
63447;BME280;49577;49.872;6.190;2023-03-04T05:54:31;100274.01;;;-1.40;74.72
63447;BME280;49577;49.872;6.190;2023-03-04T05:56:56;100272.11;;;-1.36;74.80
63447;BME280;49577;49.872;6.190;2023-03-04T05:59:22;100275.85;;;-1.35;74.77
63447;BME280;49577;49.872;6.190;2023-03-04T06:01:47;100272.09;;;-1.33;74.89
63447;BME280;49577;49.872;6.190;2023-03-04T06:04:13;100276.20;;;-1.28;74.77
63447;BME280;49577;49.872;6.190;2023-03-04T06:06:38;100274.64;;;-1.23;74.63
63447;BME280;49577;49.872;6.190;2023-03-04T06:09:03;100272.59;;;-1.23;74.60
63447;BME280;49577;49.872;6.190;2023-03-04T06:11:29;100275.48;;;-1.26;74.45
63447;BME280;49577;49.872;6.190;2023-03-04T06:13:54;100278.24;;;-1.27;74.40
63447;BME280;49577;49.872;6.190;2023-03-04T06:16:19;100278.75;;;-1.27;74.41
63447;BME280;49577;49.872;6.190;2023-03-04T06:18:45;100275.84;;;-1.24;74.48
63447;BME280;49577;49.872;6.190;2023-03-04T06:21:10;100275.14;;;-1.21;74.51
63447;BME280;49577;49.872;6.190;2023-03-04T06:23:35;100270.30;;;-1.15;74.61
63447;BME280;49577;49.872;6.190;2023-03-04T06:26:01;100277.30;;;-1.09;74.44
63447;BME280;49577;49.872;6.190;2023-03-04T06:28:27;100279.70;;;-1.09;74.19
63447;BME280;49577;49.872;6.190;2023-03-04T06:30:54;100278.87;;;-1.11;74.34
63447;BME280;49577;49.872;6.190;2023-03-04T06:33:20;100280.41;;;-1.10;74.33
63447;BME280;49577;49.872;6.190;2023-03-04T06:35:45;100280.23;;;-1.09;74.34
63447;BME280;49577;49.872;6.190;2023-03-04T06:38:11;100282.96;;;-1.06;74.29
63447;BME280;49577;49.872;6.190;2023-03-04T06:40:36;100282.60;;;-1.03;74.19
63447;BME280;49577;49.872;6.190;2023-03-04T06:43:02;100286.53;;;-0.99;74.25
63447;BME280;49577;49.872;6.190;2023-03-04T06:45:27;100289.41;;;-0.94;74.25
63447;BME280;49577;49.872;6.190;2023-03-04T06:47:52;100291.80;;;-0.89;74.17
63447;BME280;49577;49.872;6.190;2023-03-04T06:50:18;100290.56;;;-0.84;74.10
63447;BME280;49577;49.872;6.190;2023-03-04T06:52:43;100293.30;;;-0.80;74.02
63447;BME280;49577;49.872;6.190;2023-03-04T06:55:09;100294.30;;;-0.78;74.00
63447;BME280;49577;49.872;6.190;2023-03-04T06:57:34;100296.68;;;-0.76;73.95
63447;BME280;49577;49.872;6.190;2023-03-04T06:59:59;100299.61;;;-0.75;74.08
63447;BME280;49577;49.872;6.190;2023-03-04T07:02:25;100305.25;;;-0.71;74.24
63447;BME280;49577;49.872;6.190;2023-03-04T07:04:51;100304.85;;;-0.61;74.69
63447;BME280;49577;49.872;6.190;2023-03-04T07:07:16;100307.86;;;-0.50;74.52
63447;BME280;49577;49.872;6.190;2023-03-04T07:09:41;100305.05;;;-0.41;74.19
63447;BME280;49577;49.872;6.190;2023-03-04T07:12:07;100306.41;;;-0.39;73.87
63447;BME280;49577;49.872;6.190;2023-03-04T07:14:32;100313.80;;;-0.40;73.68
63447;BME280;49577;49.872;6.190;2023-03-04T07:16:57;100306.27;;;-0.42;73.72
63447;BME280;49577;49.872;6.190;2023-03-04T07:19:23;100309.84;;;-0.38;73.81
63447;BME280;49577;49.872;6.190;2023-03-04T07:21:48;100307.27;;;-0.36;73.62
63447;BME280;49577;49.872;6.190;2023-03-04T07:24:14;100306.38;;;-0.34;73.60
63447;BME280;49577;49.872;6.190;2023-03-04T07:26:39;100309.12;;;-0.32;73.77
63447;BME280;49577;49.872;6.190;2023-03-04T07:29:05;100311.50;;;-0.29;73.65
63447;BME280;49577;49.872;6.190;2023-03-04T07:31:32;100312.50;;;-0.25;73.77
63447;BME280;49577;49.872;6.190;2023-03-04T07:34:06;100310.24;;;-0.23;73.57
63447;BME280;49577;49.872;6.190;2023-03-04T07:36:34;100315.38;;;-0.20;73.50
63447;BME280;49577;49.872;6.190;2023-03-04T07:38:59;100315.02;;;-0.18;73.62
63447;BME280;49577;49.872;6.190;2023-03-04T07:41:26;100314.96;;;-0.11;73.71
63447;BME280;49577;49.872;6.190;2023-03-04T07:43:51;100312.84;;;-0.03;73.70
63447;BME280;49577;49.872;6.190;2023-03-04T07:46:17;100312.23;;;0.08;73.60
63447;BME280;49577;49.872;6.190;2023-03-04T07:48:43;100316.61;;;0.17;73.18
63447;BME280;49577;49.872;6.190;2023-03-04T07:51:14;100315.89;;;0.22;72.96
63447;BME280;49577;49.872;6.190;2023-03-04T07:53:42;100318.08;;;0.26;72.93
63447;BME280;49577;49.872;6.190;2023-03-04T07:56:11;100315.09;;;0.33;73.05
63447;BME280;49577;49.872;6.190;2023-03-04T07:58:37;100316.04;;;0.42;73.01
63447;BME280;49577;49.872;6.190;2023-03-04T08:01:11;100319.38;;;0.52;72.70
63447;BME280;49577;49.872;6.190;2023-03-04T08:03:36;100322.05;;;0.58;72.60
63447;BME280;49577;49.872;6.190;2023-03-04T08:06:06;100319.57;;;0.65;72.62
63447;BME280;49577;49.872;6.190;2023-03-04T08:08:32;100320.57;;;0.68;72.36
63447;BME280;49577;49.872;6.190;2023-03-04T08:10:57;100321.38;;;0.73;72.63
63447;BME280;49577;49.872;6.190;2023-03-04T08:13:22;100314.77;;;0.81;72.54
63447;BME280;49577;49.872;6.190;2023-03-04T08:15:48;100315.02;;;0.87;72.30
63447;BME280;49577;49.872;6.190;2023-03-04T08:18:13;100316.30;;;0.95;72.07
63447;BME280;49577;49.872;6.190;2023-03-04T08:20:41;100312.10;;;1.02;71.91
63447;BME280;49577;49.872;6.190;2023-03-04T08:23:09;100311.33;;;1.07;71.75
63447;BME280;49577;49.872;6.190;2023-03-04T08:25:38;100313.85;;;1.12;71.86
63447;BME280;49577;49.872;6.190;2023-03-04T08:28:04;100316.38;;;1.17;71.84
63447;BME280;49577;49.872;6.190;2023-03-04T08:30:29;100317.64;;;1.26;71.85
63447;BME280;49577;49.872;6.190;2023-03-04T08:32:55;100317.84;;;1.36;71.60
63447;BME280;49577;49.872;6.190;2023-03-04T08:35:20;100313.02;;;1.47;71.46
63447;BME280;49577;49.872;6.190;2023-03-04T08:37:45;100316.48;;;1.59;71.38
63447;BME280;49577;49.872;6.190;2023-03-04T08:40:12;100312.38;;;1.69;71.12
63447;BME280;49577;49.872;6.190;2023-03-04T08:42:37;100315.34;;;1.78;71.20
63447;BME280;49577;49.872;6.190;2023-03-04T08:45:03;100315.66;;;1.90;71.18
63447;BME280;49577;49.872;6.190;2023-03-04T08:47:28;100317.23;;;1.99;70.94
63447;BME280;49577;49.872;6.190;2023-03-04T08:49:53;100311.93;;;2.07;70.96
63447;BME280;49577;49.872;6.190;2023-03-04T08:52:19;100313.33;;;2.16;71.00
63447;BME280;49577;49.872;6.190;2023-03-04T08:54:44;100313.70;;;2.25;70.82
63447;BME280;49577;49.872;6.190;2023-03-04T08:57:09;100312.39;;;2.30;70.82
63447;BME280;49577;49.872;6.190;2023-03-04T08:59:34;100314.39;;;2.34;70.93
63447;BME280;49577;49.872;6.190;2023-03-04T09:02:00;100312.52;;;2.42;70.92
63447;BME280;49577;49.872;6.190;2023-03-04T09:04:25;100311.99;;;2.53;70.83
63447;BME280;49577;49.872;6.190;2023-03-04T09:06:50;100314.91;;;2.63;70.57
63447;BME280;49577;49.872;6.190;2023-03-04T09:09:16;100317.12;;;2.73;70.37
63447;BME280;49577;49.872;6.190;2023-03-04T09:11:42;100319.21;;;2.81;69.94
63447;BME280;49577;49.872;6.190;2023-03-04T09:14:07;100320.22;;;2.83;69.76
63447;BME280;49577;49.872;6.190;2023-03-04T09:16:32;100320.83;;;2.87;70.05
63447;BME280;49577;49.872;6.190;2023-03-04T09:18:59;100320.17;;;2.94;70.03
63447;BME280;49577;49.872;6.190;2023-03-04T09:21:24;100317.07;;;3.02;69.77
63447;BME280;49577;49.872;6.190;2023-03-04T09:23:50;100313.32;;;3.08;69.88
63447;BME280;49577;49.872;6.190;2023-03-04T09:26:21;100316.52;;;3.11;69.69
63447;BME280;49577;49.872;6.190;2023-03-04T09:28:51;100316.52;;;3.20;69.48
63447;BME280;49577;49.872;6.190;2023-03-04T09:31:17;100316.91;;;3.25;68.74
63447;BME280;49577;49.872;6.190;2023-03-04T09:33:43;100318.90;;;3.38;68.46
63447;BME280;49577;49.872;6.190;2023-03-04T09:36:10;100320.15;;;3.51;68.13
63447;BME280;49577;49.872;6.190;2023-03-04T09:38:36;100320.23;;;3.63;67.82
63447;BME280;49577;49.872;6.190;2023-03-04T09:41:06;100321.52;;;3.74;67.43
63447;BME280;49577;49.872;6.190;2023-03-04T09:43:32;100321.10;;;3.85;66.86
63447;BME280;49577;49.872;6.190;2023-03-04T09:46:02;100319.36;;;3.93;66.37
63447;BME280;49577;49.872;6.190;2023-03-04T09:48:52;100320.77;;;3.99;65.88
63447;BME280;49577;49.872;6.190;2023-03-04T09:51:27;100319.96;;;4.03;65.52
63447;BME280;49577;49.872;6.190;2023-03-04T09:56:40;100321.39;;;4.15;65.07
63447;BME280;49577;49.872;6.190;2023-03-04T10:01:41;100319.20;;;4.34;65.10
63447;BME280;49577;49.872;6.190;2023-03-04T10:04:16;100315.10;;;4.39;63.88
63447;BME280;49577;49.872;6.190;2023-03-04T10:06:43;100320.30;;;4.32;63.39
63447;BME280;49577;49.872;6.190;2023-03-04T10:09:21;100320.41;;;4.26;63.71
63447;BME280;49577;49.872;6.190;2023-03-04T10:12:03;100322.71;;;4.25;63.38
63447;BME280;49577;49.872;6.190;2023-03-04T10:14:37;100318.34;;;4.20;63.45
63447;BME280;49577;49.872;6.190;2023-03-04T10:17:14;100318.77;;;4.23;63.52
63447;BME280;49577;49.872;6.190;2023-03-04T10:19:52;100309.66;;;4.27;63.37
63447;BME280;49577;49.872;6.190;2023-03-04T10:22:26;100307.93;;;4.35;63.87
63447;BME280;49577;49.872;6.190;2023-03-04T10:24:56;100304.30;;;4.48;63.66
63447;BME280;49577;49.872;6.190;2023-03-04T10:27:21;100307.78;;;4.60;63.53
63447;BME280;49577;49.872;6.190;2023-03-04T10:29:49;100307.55;;;4.75;63.70
63447;BME280;49577;49.872;6.190;2023-03-04T10:32:19;100306.98;;;4.89;63.16
63447;BME280;49577;49.872;6.190;2023-03-04T10:34:45;100302.20;;;4.98;62.69
63447;BME280;49577;49.872;6.190;2023-03-04T10:37:11;100300.59;;;5.00;62.43
63447;BME280;49577;49.872;6.190;2023-03-04T10:39:42;100302.52;;;5.05;62.85
63447;BME280;49577;49.872;6.190;2023-03-04T10:44:53;100301.35;;;5.21;62.65
63447;BME280;49577;49.872;6.190;2023-03-04T10:47:23;100297.30;;;5.30;62.60
63447;BME280;49577;49.872;6.190;2023-03-04T10:50:00;100295.17;;;5.37;62.10
63447;BME280;49577;49.872;6.190;2023-03-04T10:52:38;100297.02;;;5.39;60.95
63447;BME280;49577;49.872;6.190;2023-03-04T10:55:28;100298.47;;;5.31;60.66
63447;BME280;49577;49.872;6.190;2023-03-04T10:58:00;100298.20;;;5.34;61.33
63447;BME280;49577;49.872;6.190;2023-03-04T11:00:32;100295.85;;;5.37;60.39
63447;BME280;49577;49.872;6.190;2023-03-04T11:05:48;100288.45;;;5.42;60.36
63447;BME280;49577;49.872;6.190;2023-03-04T11:08:21;100289.77;;;5.38;60.24
63447;BME280;49577;49.872;6.190;2023-03-04T11:10:48;100287.02;;;5.37;60.16
63447;BME280;49577;49.872;6.190;2023-03-04T11:13:21;100282.71;;;5.48;60.20
63447;BME280;49577;49.872;6.190;2023-03-04T11:16:04;100281.23;;;5.46;59.00
63447;BME280;49577;49.872;6.190;2023-03-04T11:18:45;100278.73;;;5.37;59.86
63447;BME280;49577;49.872;6.190;2023-03-04T11:21:21;100277.46;;;5.44;60.02
63447;BME280;49577;49.872;6.190;2023-03-04T11:24:13;100280.48;;;5.53;60.00
63447;BME280;49577;49.872;6.190;2023-03-04T11:26:50;100283.48;;;5.63;59.51
63447;BME280;49577;49.872;6.190;2023-03-04T11:31:57;100279.23;;;5.75;59.38
63447;BME280;49577;49.872;6.190;2023-03-04T11:37:35;100280.11;;;5.98;59.26
63447;BME280;49577;49.872;6.190;2023-03-04T11:42:46;100273.91;;;5.97;58.23
63447;BME280;49577;49.872;6.190;2023-03-04T11:45:15;100272.67;;;5.80;58.19
63447;BME280;49577;49.872;6.190;2023-03-04T11:47:59;100270.65;;;5.68;58.56
63447;BME280;49577;49.872;6.190;2023-03-04T11:50:38;100266.95;;;5.64;59.14
63447;BME280;49577;49.872;6.190;2023-03-04T11:53:19;100261.67;;;5.72;59.55
63447;BME280;49577;49.872;6.190;2023-03-04T11:55:55;100257.90;;;5.87;59.37
63447;BME280;49577;49.872;6.190;2023-03-04T11:59:10;100256.34;;;6.03;59.03
63447;BME280;49577;49.872;6.190;2023-03-04T12:04:55;100252.67;;;6.19;58.21
63447;BME280;49577;49.872;6.190;2023-03-04T12:12:33;100248.32;;;6.35;57.85
63447;BME280;49577;49.872;6.190;2023-03-04T12:20:56;100238.56;;;6.36;57.04
63447;BME280;49577;49.872;6.190;2023-03-04T12:31:45;100233.92;;;6.25;57.03
63447;BME280;49577;49.872;6.190;2023-03-04T12:37:24;100228.94;;;6.28;57.07
63447;BME280;49577;49.872;6.190;2023-03-04T12:45:23;100213.00;;;6.42;56.57
63447;BME280;49577;49.872;6.190;2023-03-04T12:51:10;100208.00;;;6.51;56.36
63447;BME280;49577;49.872;6.190;2023-03-04T12:54:33;100205.29;;;6.54;56.12
63447;BME280;49577;49.872;6.190;2023-03-04T12:56:43;100204.41;;;6.54;55.82
63447;BME280;49577;49.872;6.190;2023-03-04T12:59:17;100199.16;;;6.55;55.92
63447;BME280;49577;49.872;6.190;2023-03-04T13:01:55;100197.16;;;6.58;55.84
63447;BME280;49577;49.872;6.190;2023-03-04T13:04:39;100201.79;;;6.59;55.60
63447;BME280;49577;49.872;6.190;2023-03-04T13:10:06;100193.89;;;6.48;55.08
63447;BME280;49577;49.872;6.190;2023-03-04T13:12:55;100187.34;;;6.37;55.29
63447;BME280;49577;49.872;6.190;2023-03-04T13:17:53;100182.05;;;5.95;55.44
63447;BME280;49577;49.872;6.190;2023-03-04T13:20:38;100182.66;;;5.81;56.01
63447;BME280;49577;49.872;6.190;2023-03-04T13:28:27;100180.02;;;6.14;56.58
63447;BME280;49577;49.872;6.190;2023-03-04T13:36:02;100176.23;;;6.42;55.52
63447;BME280;49577;49.872;6.190;2023-03-04T13:43:41;100171.14;;;6.24;55.27
63447;BME280;49577;49.872;6.190;2023-03-04T13:51:33;100167.20;;;5.99;56.02
63447;BME280;49577;49.872;6.190;2023-03-04T13:54:23;100165.33;;;6.07;56.25
63447;BME280;49577;49.872;6.190;2023-03-04T13:59:31;100165.02;;;6.25;56.31
63447;BME280;49577;49.872;6.190;2023-03-04T14:06:57;100153.29;;;6.57;55.79
63447;BME280;49577;49.872;6.190;2023-03-04T14:09:27;100153.65;;;6.61;55.44
63447;BME280;49577;49.872;6.190;2023-03-04T14:11:58;100149.15;;;6.60;55.30
63447;BME280;49577;49.872;6.190;2023-03-04T14:14:29;100148.25;;;6.61;55.15
63447;BME280;49577;49.872;6.190;2023-03-04T14:16:59;100142.17;;;6.62;55.20
63447;BME280;49577;49.872;6.190;2023-03-04T14:19:30;100140.49;;;6.65;55.34
63447;BME280;49577;49.872;6.190;2023-03-04T14:21:58;100137.11;;;6.67;55.17
63447;BME280;49577;49.872;6.190;2023-03-04T14:24:24;100136.60;;;6.66;54.90
63447;BME280;49577;49.872;6.190;2023-03-04T14:27:02;100134.73;;;6.65;54.99